sensor_id;sensor_type;location;lat;lon;timestamp;temperature;humidity
24226;DHT22;51462;51.422;5.514;2023-03-03T00:00:26;3.30;99.90
24226;DHT22;51462;51.422;5.514;2023-03-03T00:02:52;3.40;99.90
24226;DHT22;51462;51.422;5.514;2023-03-03T00:05:18;3.60;99.90
24226;DHT22;51462;51.422;5.514;2023-03-03T00:07:44;3.40;99.90
24226;DHT22;51462;51.422;5.514;2023-03-03T00:10:11;3.80;99.90
24226;DHT22;51462;51.422;5.514;2023-03-03T00:12:45;3.70;99.90
24226;DHT22;51462;51.422;5.514;2023-03-03T00:15:17;3.80;99.90
24226;DHT22;51462;51.422;5.514;2023-03-03T00:17:43;3.50;99.90
24226;DHT22;51462;51.422;5.514;2023-03-03T00:22:51;3.30;99.90
24226;DHT22;51462;51.422;5.514;2023-03-03T00:25:27;3.10;99.90
24226;DHT22;51462;51.422;5.514;2023-03-03T00:27:54;3.10;99.90
24226;DHT22;51462;51.422;5.514;2023-03-03T00:30:25;3.00;99.90
24226;DHT22;51462;51.422;5.514;2023-03-03T00:32:51;3.00;99.90
24226;DHT22;51462;51.422;5.514;2023-03-03T00:37:58;3.70;99.90
24226;DHT22;51462;51.422;5.514;2023-03-03T00:42:55;3.10;99.90
24226;DHT22;51462;51.422;5.514;2023-03-03T00:47:54;4.00;99.90
24226;DHT22;51462;51.422;5.514;2023-03-03T00:50:30;3.70;99.90
24226;DHT22;51462;51.422;5.514;2023-03-03T00:53:05;4.20;99.90
24226;DHT22;51462;51.422;5.514;2023-03-03T00:55:33;4.20;99.90
24226;DHT22;51462;51.422;5.514;2023-03-03T00:57:59;4.30;99.90
24226;DHT22;51462;51.422;5.514;2023-03-03T01:00:25;4.80;99.90
24226;DHT22;51462;51.422;5.514;2023-03-03T01:02:50;3.90;99.90
24226;DHT22;51462;51.422;5.514;2023-03-03T01:05:17;3.50;99.90
24226;DHT22;51462;51.422;5.514;2023-03-03T01:07:43;3.50;99.90
24226;DHT22;51462;51.422;5.514;2023-03-03T01:10:09;4.40;99.90
24226;DHT22;51462;51.422;5.514;2023-03-03T01:12:34;4.60;99.90
24226;DHT22;51462;51.422;5.514;2023-03-03T01:15:01;4.30;99.90
24226;DHT22;51462;51.422;5.514;2023-03-03T01:17:27;3.90;99.90
24226;DHT22;51462;51.422;5.514;2023-03-03T01:19:53;3.70;99.90
24226;DHT22;51462;51.422;5.514;2023-03-03T01:22:18;4.40;99.90
24226;DHT22;51462;51.422;5.514;2023-03-03T01:24:44;4.10;99.90
24226;DHT22;51462;51.422;5.514;2023-03-03T01:27:09;3.90;99.90
24226;DHT22;51462;51.422;5.514;2023-03-03T01:29:35;4.80;99.90
24226;DHT22;51462;51.422;5.514;2023-03-03T01:32:01;4.40;99.90
24226;DHT22;51462;51.422;5.514;2023-03-03T01:34:26;4.40;99.90
24226;DHT22;51462;51.422;5.514;2023-03-03T01:36:52;4.70;99.90
24226;DHT22;51462;51.422;5.514;2023-03-03T01:39:17;4.60;99.90
24226;DHT22;51462;51.422;5.514;2023-03-03T01:41:43;4.50;99.90
24226;DHT22;51462;51.422;5.514;2023-03-03T01:44:14;4.30;99.90
24226;DHT22;51462;51.422;5.514;2023-03-03T01:46:43;5.00;99.90
24226;DHT22;51462;51.422;5.514;2023-03-03T01:49:59;4.70;99.90
24226;DHT22;51462;51.422;5.514;2023-03-03T01:52:24;4.60;99.90
24226;DHT22;51462;51.422;5.514;2023-03-03T01:54:56;4.30;99.90
24226;DHT22;51462;51.422;5.514;2023-03-03T01:57:31;4.40;99.90
24226;DHT22;51462;51.422;5.514;2023-03-03T01:59:57;4.70;99.90
24226;DHT22;51462;51.422;5.514;2023-03-03T02:02:25;4.50;99.90
24226;DHT22;51462;51.422;5.514;2023-03-03T02:04:52;4.90;99.90
24226;DHT22;51462;51.422;5.514;2023-03-03T02:07:19;4.90;99.90
24226;DHT22;51462;51.422;5.514;2023-03-03T02:12:42;5.50;99.90
24226;DHT22;51462;51.422;5.514;2023-03-03T02:17:52;5.60;99.90
24226;DHT22;51462;51.422;5.514;2023-03-03T02:20:45;5.60;99.90
24226;DHT22;51462;51.422;5.514;2023-03-03T02:26:21;4.80;99.90
24226;DHT22;51462;51.422;5.514;2023-03-03T02:28:47;4.70;99.90
24226;DHT22;51462;51.422;5.514;2023-03-03T02:31:16;5.10;99.90
24226;DHT22;51462;51.422;5.514;2023-03-03T02:33:44;4.80;99.90
24226;DHT22;51462;51.422;5.514;2023-03-03T02:36:16;5.10;99.90
24226;DHT22;51462;51.422;5.514;2023-03-03T02:39:18;5.20;99.90
24226;DHT22;51462;51.422;5.514;2023-03-03T02:42:20;4.90;99.90
24226;DHT22;51462;51.422;5.514;2023-03-03T02:44:47;5.10;99.90
24226;DHT22;51462;51.422;5.514;2023-03-03T02:47:13;5.30;99.90
24226;DHT22;51462;51.422;5.514;2023-03-03T02:49:38;5.30;99.90
24226;DHT22;51462;51.422;5.514;2023-03-03T02:52:07;5.00;99.90
24226;DHT22;51462;51.422;5.514;2023-03-03T02:54:34;4.90;99.90
24226;DHT22;51462;51.422;5.514;2023-03-03T02:56:59;4.20;99.90
24226;DHT22;51462;51.422;5.514;2023-03-03T02:59:25;4.30;99.90
24226;DHT22;51462;51.422;5.514;2023-03-03T03:01:51;4.80;99.90
24226;DHT22;51462;51.422;5.514;2023-03-03T03:04:19;4.60;99.90
24226;DHT22;51462;51.422;5.514;2023-03-03T03:06:45;4.20;99.90
24226;DHT22;51462;51.422;5.514;2023-03-03T03:09:12;4.50;99.90
24226;DHT22;51462;51.422;5.514;2023-03-03T03:11:39;4.20;99.90
24226;DHT22;51462;51.422;5.514;2023-03-03T03:14:06;4.80;99.90
24226;DHT22;51462;51.422;5.514;2023-03-03T03:16:32;4.90;99.90
24226;DHT22;51462;51.422;5.514;2023-03-03T03:18:59;5.00;99.90
24226;DHT22;51462;51.422;5.514;2023-03-03T03:21:25;4.30;99.90
24226;DHT22;51462;51.422;5.514;2023-03-03T03:23:50;3.90;99.90
24226;DHT22;51462;51.422;5.514;2023-03-03T03:26:16;4.40;99.90
24226;DHT22;51462;51.422;5.514;2023-03-03T03:28:42;4.60;99.90
24226;DHT22;51462;51.422;5.514;2023-03-03T03:31:09;4.40;99.90
24226;DHT22;51462;51.422;5.514;2023-03-03T03:33:34;4.80;99.90
24226;DHT22;51462;51.422;5.514;2023-03-03T03:36:00;5.00;99.90
24226;DHT22;51462;51.422;5.514;2023-03-03T03:38:27;4.90;99.90
24226;DHT22;51462;51.422;5.514;2023-03-03T03:40:54;4.80;99.90
24226;DHT22;51462;51.422;5.514;2023-03-03T03:43:20;5.10;99.90
24226;DHT22;51462;51.422;5.514;2023-03-03T03:45:46;5.00;99.90
24226;DHT22;51462;51.422;5.514;2023-03-03T03:48:12;5.20;99.90
24226;DHT22;51462;51.422;5.514;2023-03-03T03:50:38;5.60;99.90
24226;DHT22;51462;51.422;5.514;2023-03-03T03:53:05;5.60;99.90
24226;DHT22;51462;51.422;5.514;2023-03-03T03:55:31;5.50;99.90
24226;DHT22;51462;51.422;5.514;2023-03-03T03:57:57;4.60;99.90
24226;DHT22;51462;51.422;5.514;2023-03-03T04:00:23;4.50;99.90
24226;DHT22;51462;51.422;5.514;2023-03-03T04:02:49;5.00;99.90
24226;DHT22;51462;51.422;5.514;2023-03-03T04:05:14;5.00;99.90
24226;DHT22;51462;51.422;5.514;2023-03-03T04:07:40;5.30;99.90
24226;DHT22;51462;51.422;5.514;2023-03-03T04:10:06;5.10;99.90
24226;DHT22;51462;51.422;5.514;2023-03-03T04:12:31;4.70;99.90
24226;DHT22;51462;51.422;5.514;2023-03-03T04:15:07;4.50;99.90
24226;DHT22;51462;51.422;5.514;2023-03-03T04:17:33;4.60;99.90
24226;DHT22;51462;51.422;5.514;2023-03-03T04:19:59;5.00;99.90
24226;DHT22;51462;51.422;5.514;2023-03-03T04:22:24;5.10;99.90
24226;DHT22;51462;51.422;5.514;2023-03-03T04:24:50;4.80;99.90
24226;DHT22;51462;51.422;5.514;2023-03-03T04:27:15;5.00;99.90
24226;DHT22;51462;51.422;5.514;2023-03-03T04:29:41;4.90;99.90
24226;DHT22;51462;51.422;5.514;2023-03-03T04:32:07;4.90;99.90
24226;DHT22;51462;51.422;5.514;2023-03-03T04:34:33;4.70;99.90
24226;DHT22;51462;51.422;5.514;2023-03-03T04:36:58;4.20;99.90
24226;DHT22;51462;51.422;5.514;2023-03-03T04:39:24;4.50;99.90
24226;DHT22;51462;51.422;5.514;2023-03-03T04:41:51;4.40;99.90
24226;DHT22;51462;51.422;5.514;2023-03-03T04:44:17;4.40;99.90
24226;DHT22;51462;51.422;5.514;2023-03-03T04:46:42;4.80;99.90
24226;DHT22;51462;51.422;5.514;2023-03-03T04:49:08;5.10;99.90
24226;DHT22;51462;51.422;5.514;2023-03-03T04:51:34;5.20;99.90
24226;DHT22;51462;51.422;5.514;2023-03-03T04:53:59;5.10;99.90
24226;DHT22;51462;51.422;5.514;2023-03-03T04:56:26;4.70;99.90
24226;DHT22;51462;51.422;5.514;2023-03-03T04:58:52;4.10;99.90
24226;DHT22;51462;51.422;5.514;2023-03-03T05:01:18;3.80;99.90
24226;DHT22;51462;51.422;5.514;2023-03-03T05:03:44;4.70;99.90
24226;DHT22;51462;51.422;5.514;2023-03-03T05:06:10;4.90;99.90
24226;DHT22;51462;51.422;5.514;2023-03-03T05:08:36;4.70;99.90
24226;DHT22;51462;51.422;5.514;2023-03-03T05:11:02;4.60;99.90
24226;DHT22;51462;51.422;5.514;2023-03-03T05:13:28;4.50;99.90
24226;DHT22;51462;51.422;5.514;2023-03-03T05:15:55;4.50;99.90
24226;DHT22;51462;51.422;5.514;2023-03-03T05:18:24;4.50;99.90
24226;DHT22;51462;51.422;5.514;2023-03-03T05:20:50;4.70;99.90
24226;DHT22;51462;51.422;5.514;2023-03-03T05:23:17;4.80;99.90
24226;DHT22;51462;51.422;5.514;2023-03-03T05:25:43;5.20;99.90
24226;DHT22;51462;51.422;5.514;2023-03-03T05:28:09;4.90;99.90
24226;DHT22;51462;51.422;5.514;2023-03-03T05:30:34;4.60;99.90
24226;DHT22;51462;51.422;5.514;2023-03-03T05:33:00;3.90;99.90
24226;DHT22;51462;51.422;5.514;2023-03-03T05:35:26;4.20;99.90
24226;DHT22;51462;51.422;5.514;2023-03-03T05:37:51;4.30;99.90
24226;DHT22;51462;51.422;5.514;2023-03-03T05:40:17;4.40;99.90
24226;DHT22;51462;51.422;5.514;2023-03-03T05:42:44;4.00;99.90
24226;DHT22;51462;51.422;5.514;2023-03-03T05:45:10;3.70;99.90
24226;DHT22;51462;51.422;5.514;2023-03-03T05:47:36;4.00;99.90
24226;DHT22;51462;51.422;5.514;2023-03-03T05:50:02;4.30;99.90
24226;DHT22;51462;51.422;5.514;2023-03-03T05:52:28;4.60;99.90
24226;DHT22;51462;51.422;5.514;2023-03-03T05:54:54;4.40;99.90
24226;DHT22;51462;51.422;5.514;2023-03-03T05:57:19;4.40;99.90
24226;DHT22;51462;51.422;5.514;2023-03-03T05:59:45;4.10;99.90
24226;DHT22;51462;51.422;5.514;2023-03-03T06:02:10;4.80;99.90
24226;DHT22;51462;51.422;5.514;2023-03-03T06:04:36;5.00;99.90
24226;DHT22;51462;51.422;5.514;2023-03-03T06:07:02;5.50;99.90
24226;DHT22;51462;51.422;5.514;2023-03-03T06:09:27;5.20;99.90
24226;DHT22;51462;51.422;5.514;2023-03-03T06:11:53;4.70;99.90
24226;DHT22;51462;51.422;5.514;2023-03-03T06:14:19;4.80;99.90
24226;DHT22;51462;51.422;5.514;2023-03-03T06:16:46;4.60;99.90
24226;DHT22;51462;51.422;5.514;2023-03-03T06:19:12;4.40;99.90
24226;DHT22;51462;51.422;5.514;2023-03-03T06:21:38;4.40;99.90
24226;DHT22;51462;51.422;5.514;2023-03-03T06:24:04;4.40;99.90
24226;DHT22;51462;51.422;5.514;2023-03-03T06:26:31;4.00;99.90
24226;DHT22;51462;51.422;5.514;2023-03-03T06:28:57;4.00;99.90
24226;DHT22;51462;51.422;5.514;2023-03-03T06:31:22;3.70;99.90
24226;DHT22;51462;51.422;5.514;2023-03-03T06:33:48;4.10;99.90
24226;DHT22;51462;51.422;5.514;2023-03-03T06:36:13;4.00;99.90
24226;DHT22;51462;51.422;5.514;2023-03-03T06:38:39;4.20;99.90
24226;DHT22;51462;51.422;5.514;2023-03-03T06:41:05;4.70;99.90
24226;DHT22;51462;51.422;5.514;2023-03-03T06:43:33;4.90;99.90
24226;DHT22;51462;51.422;5.514;2023-03-03T06:45:59;4.50;99.90
24226;DHT22;51462;51.422;5.514;2023-03-03T06:48:25;4.40;99.90
24226;DHT22;51462;51.422;5.514;2023-03-03T06:50:50;4.90;99.90
24226;DHT22;51462;51.422;5.514;2023-03-03T06:53:17;4.80;99.90
24226;DHT22;51462;51.422;5.514;2023-03-03T06:55:43;4.80;99.90
24226;DHT22;51462;51.422;5.514;2023-03-03T06:58:17;4.60;99.90
24226;DHT22;51462;51.422;5.514;2023-03-03T07:00:56;5.10;99.90
24226;DHT22;51462;51.422;5.514;2023-03-03T07:03:23;4.90;99.90
24226;DHT22;51462;51.422;5.514;2023-03-03T07:05:49;4.30;99.90
24226;DHT22;51462;51.422;5.514;2023-03-03T07:08:21;4.70;99.90
24226;DHT22;51462;51.422;5.514;2023-03-03T07:10:48;5.00;99.90
24226;DHT22;51462;51.422;5.514;2023-03-03T07:15:54;4.40;99.90
24226;DHT22;51462;51.422;5.514;2023-03-03T07:20:58;4.60;99.90
24226;DHT22;51462;51.422;5.514;2023-03-03T07:23:37;4.00;99.90
24226;DHT22;51462;51.422;5.514;2023-03-03T07:26:14;4.00;99.90
24226;DHT22;51462;51.422;5.514;2023-03-03T07:28:42;3.60;99.90
24226;DHT22;51462;51.422;5.514;2023-03-03T07:31:28;3.70;99.90
24226;DHT22;51462;51.422;5.514;2023-03-03T07:33:56;3.80;99.90
24226;DHT22;51462;51.422;5.514;2023-03-03T07:36:27;4.10;99.90
24226;DHT22;51462;51.422;5.514;2023-03-03T07:38:58;4.10;99.90
24226;DHT22;51462;51.422;5.514;2023-03-03T07:41:25;4.30;99.90
24226;DHT22;51462;51.422;5.514;2023-03-03T07:44:05;4.90;99.90
24226;DHT22;51462;51.422;5.514;2023-03-03T07:46:44;5.40;99.90
24226;DHT22;51462;51.422;5.514;2023-03-03T07:49:21;4.90;99.90
24226;DHT22;51462;51.422;5.514;2023-03-03T07:51:52;5.20;99.90
24226;DHT22;51462;51.422;5.514;2023-03-03T07:54:38;4.80;99.90
24226;DHT22;51462;51.422;5.514;2023-03-03T07:59:39;3.80;99.90
24226;DHT22;51462;51.422;5.514;2023-03-03T08:07:44;4.20;99.90
24226;DHT22;51462;51.422;5.514;2023-03-03T08:10:30;4.00;99.90
24226;DHT22;51462;51.422;5.514;2023-03-03T08:13:01;3.90;99.90
24226;DHT22;51462;51.422;5.514;2023-03-03T08:15:36;4.50;99.90
24226;DHT22;51462;51.422;5.514;2023-03-03T08:18:02;4.80;99.90
24226;DHT22;51462;51.422;5.514;2023-03-03T08:20:45;4.80;99.90
24226;DHT22;51462;51.422;5.514;2023-03-03T08:23:11;4.90;99.90
24226;DHT22;51462;51.422;5.514;2023-03-03T08:25:38;4.80;99.90
24226;DHT22;51462;51.422;5.514;2023-03-03T08:28:04;4.90;99.90
24226;DHT22;51462;51.422;5.514;2023-03-03T08:30:29;4.70;99.90
24226;DHT22;51462;51.422;5.514;2023-03-03T08:32:56;5.00;99.90
24226;DHT22;51462;51.422;5.514;2023-03-03T08:35:22;5.00;99.90
24226;DHT22;51462;51.422;5.514;2023-03-03T08:37:47;5.40;99.90
24226;DHT22;51462;51.422;5.514;2023-03-03T08:40:13;5.30;99.90
24226;DHT22;51462;51.422;5.514;2023-03-03T08:42:38;5.10;99.90
24226;DHT22;51462;51.422;5.514;2023-03-03T08:45:04;5.40;99.90
24226;DHT22;51462;51.422;5.514;2023-03-03T08:47:30;5.30;99.90
24226;DHT22;51462;51.422;5.514;2023-03-03T08:49:55;5.30;99.90
24226;DHT22;51462;51.422;5.514;2023-03-03T08:52:21;5.10;99.90
24226;DHT22;51462;51.422;5.514;2023-03-03T08:54:46;4.70;99.90
24226;DHT22;51462;51.422;5.514;2023-03-03T08:57:12;4.60;99.90
24226;DHT22;51462;51.422;5.514;2023-03-03T08:59:37;4.70;99.90
24226;DHT22;51462;51.422;5.514;2023-03-03T09:02:05;5.00;99.90
24226;DHT22;51462;51.422;5.514;2023-03-03T09:04:30;5.40;99.90
24226;DHT22;51462;51.422;5.514;2023-03-03T09:06:56;4.50;99.90
24226;DHT22;51462;51.422;5.514;2023-03-03T09:09:22;4.30;99.90
24226;DHT22;51462;51.422;5.514;2023-03-03T09:11:48;4.60;99.90
24226;DHT22;51462;51.422;5.514;2023-03-03T09:14:16;4.40;99.90
24226;DHT22;51462;51.422;5.514;2023-03-03T09:16:52;4.40;99.90
24226;DHT22;51462;51.422;5.514;2023-03-03T09:21:54;5.10;99.90
24226;DHT22;51462;51.422;5.514;2023-03-03T09:24:29;5.10;99.90
24226;DHT22;51462;51.422;5.514;2023-03-03T09:26:55;5.00;99.90
24226;DHT22;51462;51.422;5.514;2023-03-03T09:29:25;5.00;99.90
24226;DHT22;51462;51.422;5.514;2023-03-03T09:32:01;5.20;99.90
24226;DHT22;51462;51.422;5.514;2023-03-03T09:37:17;5.70;99.90
24226;DHT22;51462;51.422;5.514;2023-03-03T09:39:46;5.30;99.90
24226;DHT22;51462;51.422;5.514;2023-03-03T09:50:20;5.70;99.90
24226;DHT22;51462;51.422;5.514;2023-03-03T10:01:47;5.70;99.90
24226;DHT22;51462;51.422;5.514;2023-03-03T10:10:01;5.60;99.90
24226;DHT22;51462;51.422;5.514;2023-03-03T10:12:34;6.10;99.90
24226;DHT22;51462;51.422;5.514;2023-03-03T10:17:48;5.90;99.90
24226;DHT22;51462;51.422;5.514;2023-03-03T10:20:44;6.00;99.90
24226;DHT22;51462;51.422;5.514;2023-03-03T10:29:02;6.40;99.90
24226;DHT22;51462;51.422;5.514;2023-03-03T10:36:54;6.20;99.90
24226;DHT22;51462;51.422;5.514;2023-03-03T10:40:21;6.40;99.90
24226;DHT22;51462;51.422;5.514;2023-03-03T10:50:30;6.50;99.90
24226;DHT22;51462;51.422;5.514;2023-03-03T11:06:52;6.40;99.90
24226;DHT22;51462;51.422;5.514;2023-03-03T11:17:22;6.10;99.90
24226;DHT22;51462;51.422;5.514;2023-03-03T11:19:57;6.10;99.90
24226;DHT22;51462;51.422;5.514;2023-03-03T11:28:11;7.00;99.90
24226;DHT22;51462;51.422;5.514;2023-03-03T11:33:52;7.30;99.90
24226;DHT22;51462;51.422;5.514;2023-03-03T11:36:31;7.10;99.90
24226;DHT22;51462;51.422;5.514;2023-03-03T11:39:02;7.00;99.90
24226;DHT22;51462;51.422;5.514;2023-03-03T11:41:49;7.40;99.90
24226;DHT22;51462;51.422;5.514;2023-03-03T11:44:28;7.90;99.90
24226;DHT22;51462;51.422;5.514;2023-03-03T11:49:55;8.00;99.90
24226;DHT22;51462;51.422;5.514;2023-03-03T11:52:45;8.20;99.90
24226;DHT22;51462;51.422;5.514;2023-03-03T11:55:35;8.40;99.90
24226;DHT22;51462;51.422;5.514;2023-03-03T11:58:26;8.40;99.90
24226;DHT22;51462;51.422;5.514;2023-03-03T12:03:35;8.60;99.90
24226;DHT22;51462;51.422;5.514;2023-03-03T12:11:35;9.00;99.90
24226;DHT22;51462;51.422;5.514;2023-03-03T12:17:03;9.60;99.90
24226;DHT22;51462;51.422;5.514;2023-03-03T12:22:30;9.60;99.90
24226;DHT22;51462;51.422;5.514;2023-03-03T12:25:15;9.20;99.90
24226;DHT22;51462;51.422;5.514;2023-03-03T12:27:50;9.00;99.90
24226;DHT22;51462;51.422;5.514;2023-03-03T12:36:14;9.70;99.90
24226;DHT22;51462;51.422;5.514;2023-03-03T12:41:44;9.50;99.90
24226;DHT22;51462;51.422;5.514;2023-03-03T12:44:20;9.80;99.90
24226;DHT22;51462;51.422;5.514;2023-03-03T12:57:44;10.50;99.90
24226;DHT22;51462;51.422;5.514;2023-03-03T13:00:29;10.60;99.90
24226;DHT22;51462;51.422;5.514;2023-03-03T13:03:34;10.60;99.90
24226;DHT22;51462;51.422;5.514;2023-03-03T13:06:19;10.50;99.90
24226;DHT22;51462;51.422;5.514;2023-03-03T13:14:21;11.00;99.90
24226;DHT22;51462;51.422;5.514;2023-03-03T13:19:32;11.00;99.90
24226;DHT22;51462;51.422;5.514;2023-03-03T13:27:42;11.10;99.90
24226;DHT22;51462;51.422;5.514;2023-03-03T13:30:16;11.40;99.90
24226;DHT22;51462;51.422;5.514;2023-03-03T13:32:56;11.00;99.90
24226;DHT22;51462;51.422;5.514;2023-03-03T13:37:56;11.60;99.90
24226;DHT22;51462;51.422;5.514;2023-03-03T13:40:32;11.90;99.90
24226;DHT22;51462;51.422;5.514;2023-03-03T13:43:14;12.10;99.90
24226;DHT22;51462;51.422;5.514;2023-03-03T13:46:02;11.90;99.90
24226;DHT22;51462;51.422;5.514;2023-03-03T13:48:48;12.20;99.90
24226;DHT22;51462;51.422;5.514;2023-03-03T13:51:28;11.90;99.90
24226;DHT22;51462;51.422;5.514;2023-03-03T13:54:01;11.80;99.90
24226;DHT22;51462;51.422;5.514;2023-03-03T13:56:39;12.40;99.90
24226;DHT22;51462;51.422;5.514;2023-03-03T14:01:43;13.00;99.90
24226;DHT22;51462;51.422;5.514;2023-03-03T14:07:06;13.60;99.90
24226;DHT22;51462;51.422;5.514;2023-03-03T14:09:47;13.80;99.90
24226;DHT22;51462;51.422;5.514;2023-03-03T14:12:37;14.30;99.90
24226;DHT22;51462;51.422;5.514;2023-03-03T14:15:12;14.00;99.90
24226;DHT22;51462;51.422;5.514;2023-03-03T14:20:49;13.80;99.90
24226;DHT22;51462;51.422;5.514;2023-03-03T14:23:17;13.70;99.90
24226;DHT22;51462;51.422;5.514;2023-03-03T14:28:23;14.60;99.90
24226;DHT22;51462;51.422;5.514;2023-03-03T14:30:52;14.50;99.90
24226;DHT22;51462;51.422;5.514;2023-03-03T14:33:21;14.90;99.90
24226;DHT22;51462;51.422;5.514;2023-03-03T14:35:50;15.80;99.90
24226;DHT22;51462;51.422;5.514;2023-03-03T14:38:37;14.60;99.90
24226;DHT22;51462;51.422;5.514;2023-03-03T14:41:39;14.60;99.90
24226;DHT22;51462;51.422;5.514;2023-03-03T14:44:28;14.90;99.90
24226;DHT22;51462;51.422;5.514;2023-03-03T14:49:33;15.30;99.90
24226;DHT22;51462;51.422;5.514;2023-03-03T14:52:10;16.30;99.90
24226;DHT22;51462;51.422;5.514;2023-03-03T14:54:47;16.80;99.90
24226;DHT22;51462;51.422;5.514;2023-03-03T15:00:30;15.60;99.90
24226;DHT22;51462;51.422;5.514;2023-03-03T15:05:29;14.50;99.90
24226;DHT22;51462;51.422;5.514;2023-03-03T15:10:43;15.90;99.90
24226;DHT22;51462;51.422;5.514;2023-03-03T15:16:00;14.60;99.90
24226;DHT22;51462;51.422;5.514;2023-03-03T15:18:27;14.40;99.90
24226;DHT22;51462;51.422;5.514;2023-03-03T15:21:17;13.40;99.90
24226;DHT22;51462;51.422;5.514;2023-03-03T15:23:50;13.40;99.90
24226;DHT22;51462;51.422;5.514;2023-03-03T15:26:23;13.50;99.90
24226;DHT22;51462;51.422;5.514;2023-03-03T15:29:15;13.60;99.90
24226;DHT22;51462;51.422;5.514;2023-03-03T15:34:56;12.70;99.90
24226;DHT22;51462;51.422;5.514;2023-03-03T15:40:29;13.00;99.90
24226;DHT22;51462;51.422;5.514;2023-03-03T15:45:36;12.20;99.90
24226;DHT22;51462;51.422;5.514;2023-03-03T15:51:41;12.20;99.90
24226;DHT22;51462;51.422;5.514;2023-03-03T15:56:51;11.80;99.90
24226;DHT22;51462;51.422;5.514;2023-03-03T16:04:36;11.90;99.90
24226;DHT22;51462;51.422;5.514;2023-03-03T16:13:07;12.10;99.90
24226;DHT22;51462;51.422;5.514;2023-03-03T16:23:47;11.00;99.90
24226;DHT22;51462;51.422;5.514;2023-03-03T16:26:20;11.00;99.90
24226;DHT22;51462;51.422;5.514;2023-03-03T16:29:00;11.10;99.90
24226;DHT22;51462;51.422;5.514;2023-03-03T16:34:18;11.50;99.90
24226;DHT22;51462;51.422;5.514;2023-03-03T16:39:51;10.70;99.90
24226;DHT22;51462;51.422;5.514;2023-03-03T16:42:29;10.90;99.90
24226;DHT22;51462;51.422;5.514;2023-03-03T16:45:05;10.90;99.90
24226;DHT22;51462;51.422;5.514;2023-03-03T16:53:14;10.80;99.90
24226;DHT22;51462;51.422;5.514;2023-03-03T16:56:05;10.80;99.90
24226;DHT22;51462;51.422;5.514;2023-03-03T16:59:08;10.60;99.90
24226;DHT22;51462;51.422;5.514;2023-03-03T17:01:42;10.60;99.90
24226;DHT22;51462;51.422;5.514;2023-03-03T17:04:33;10.40;99.90
24226;DHT22;51462;51.422;5.514;2023-03-03T17:10:25;10.40;99.90
24226;DHT22;51462;51.422;5.514;2023-03-03T17:13:44;10.10;99.90
24226;DHT22;51462;51.422;5.514;2023-03-03T17:16:13;10.20;99.90
24226;DHT22;51462;51.422;5.514;2023-03-03T17:24:34;9.90;99.90
24226;DHT22;51462;51.422;5.514;2023-03-03T17:27:17;9.80;99.90
24226;DHT22;51462;51.422;5.514;2023-03-03T17:30:02;10.00;99.90
24226;DHT22;51462;51.422;5.514;2023-03-03T17:44:17;9.80;99.90
24226;DHT22;51462;51.422;5.514;2023-03-03T17:46:58;9.60;99.90
24226;DHT22;51462;51.422;5.514;2023-03-03T17:49:42;9.70;99.90
24226;DHT22;51462;51.422;5.514;2023-03-03T18:06:23;9.40;99.90
24226;DHT22;51462;51.422;5.514;2023-03-03T18:09:21;9.40;99.90
24226;DHT22;51462;51.422;5.514;2023-03-03T18:22:47;9.20;99.90
24226;DHT22;51462;51.422;5.514;2023-03-03T18:25:24;8.90;99.90
24226;DHT22;51462;51.422;5.514;2023-03-03T18:28:14;8.90;99.90
24226;DHT22;51462;51.422;5.514;2023-03-03T18:30:58;9.10;99.90
24226;DHT22;51462;51.422;5.514;2023-03-03T18:33:43;8.80;99.90
24226;DHT22;51462;51.422;5.514;2023-03-03T18:38:50;8.70;99.90
24226;DHT22;51462;51.422;5.514;2023-03-03T18:41:26;8.90;99.90
24226;DHT22;51462;51.422;5.514;2023-03-03T18:43:54;8.60;99.90
24226;DHT22;51462;51.422;5.514;2023-03-03T19:04:40;8.60;99.90
24226;DHT22;51462;51.422;5.514;2023-03-03T19:07:19;8.40;99.90
24226;DHT22;51462;51.422;5.514;2023-03-03T19:10:02;8.70;99.90
24226;DHT22;51462;51.422;5.514;2023-03-03T19:12:50;8.70;99.90
24226;DHT22;51462;51.422;5.514;2023-03-03T19:17:58;8.90;99.90
24226;DHT22;51462;51.422;5.514;2023-03-03T19:20:25;8.80;99.90
24226;DHT22;51462;51.422;5.514;2023-03-03T19:23:15;8.60;99.90
24226;DHT22;51462;51.422;5.514;2023-03-03T19:25:41;8.30;99.90
24226;DHT22;51462;51.422;5.514;2023-03-03T19:28:30;8.30;99.90
24226;DHT22;51462;51.422;5.514;2023-03-03T19:31:05;8.60;99.90
24226;DHT22;51462;51.422;5.514;2023-03-03T19:36:23;8.30;99.90
24226;DHT22;51462;51.422;5.514;2023-03-03T19:39:17;8.40;99.90
24226;DHT22;51462;51.422;5.514;2023-03-03T19:50:56;8.30;99.90
24226;DHT22;51462;51.422;5.514;2023-03-03T19:53:36;8.10;99.90
24226;DHT22;51462;51.422;5.514;2023-03-03T19:59:10;8.10;99.90
24226;DHT22;51462;51.422;5.514;2023-03-03T20:05:00;8.00;99.90
24226;DHT22;51462;51.422;5.514;2023-03-03T20:12:59;7.40;99.90
24226;DHT22;51462;51.422;5.514;2023-03-03T20:15:55;7.50;99.90
24226;DHT22;51462;51.422;5.514;2023-03-03T20:18:49;7.80;99.90
24226;DHT22;51462;51.422;5.514;2023-03-03T20:21:34;7.90;99.90
24226;DHT22;51462;51.422;5.514;2023-03-03T20:26:57;7.60;99.90
24226;DHT22;51462;51.422;5.514;2023-03-03T20:32:46;7.80;99.90
24226;DHT22;51462;51.422;5.514;2023-03-03T20:49:11;7.50;99.90
24226;DHT22;51462;51.422;5.514;2023-03-03T21:04:35;7.50;99.90
24226;DHT22;51462;51.422;5.514;2023-03-03T21:07:03;7.30;99.90
24226;DHT22;51462;51.422;5.514;2023-03-03T21:09:34;7.50;99.90
24226;DHT22;51462;51.422;5.514;2023-03-03T21:12:25;7.30;99.90
24226;DHT22;51462;51.422;5.514;2023-03-03T21:15:02;7.40;99.90
24226;DHT22;51462;51.422;5.514;2023-03-03T21:17:30;7.40;99.90
24226;DHT22;51462;51.422;5.514;2023-03-03T21:20:17;7.30;99.90
24226;DHT22;51462;51.422;5.514;2023-03-03T21:22:43;7.40;99.90
24226;DHT22;51462;51.422;5.514;2023-03-03T21:25:12;7.70;99.90
24226;DHT22;51462;51.422;5.514;2023-03-03T21:34:02;7.70;99.90
24226;DHT22;51462;51.422;5.514;2023-03-03T21:39:22;7.50;99.90
24226;DHT22;51462;51.422;5.514;2023-03-03T21:41:55;7.60;99.90
24226;DHT22;51462;51.422;5.514;2023-03-03T21:47:13;7.30;99.90
24226;DHT22;51462;51.422;5.514;2023-03-03T21:49:43;7.20;99.90
24226;DHT22;51462;51.422;5.514;2023-03-03T21:52:10;7.10;99.90
24226;DHT22;51462;51.422;5.514;2023-03-03T21:54:36;7.40;99.90
24226;DHT22;51462;51.422;5.514;2023-03-03T21:57:01;7.20;99.90
24226;DHT22;51462;51.422;5.514;2023-03-03T21:59:27;7.30;99.90
24226;DHT22;51462;51.422;5.514;2023-03-03T22:01:53;7.40;99.90
24226;DHT22;51462;51.422;5.514;2023-03-03T22:04:18;7.10;99.90
24226;DHT22;51462;51.422;5.514;2023-03-03T22:06:44;7.00;99.90
24226;DHT22;51462;51.422;5.514;2023-03-03T22:09:10;6.90;99.90
24226;DHT22;51462;51.422;5.514;2023-03-03T22:11:36;6.80;99.90
24226;DHT22;51462;51.422;5.514;2023-03-03T22:14:02;7.10;99.90
24226;DHT22;51462;51.422;5.514;2023-03-03T22:16:28;6.90;99.90
24226;DHT22;51462;51.422;5.514;2023-03-03T22:18:53;6.80;99.90
24226;DHT22;51462;51.422;5.514;2023-03-03T22:21:20;6.90;99.90
24226;DHT22;51462;51.422;5.514;2023-03-03T22:23:45;7.30;99.90